createdAt,value
2018-05-15T00:00:45.676Z,99.90
2018-05-15T00:03:13.752Z,99.90
2018-05-15T00:05:41.824Z,99.90
2018-05-15T00:08:09.928Z,99.90
2018-05-15T00:10:38.007Z,99.90
2018-05-15T00:13:06.056Z,99.90
2018-05-15T00:15:35.843Z,99.90
2018-05-15T00:18:03.907Z,99.90
2018-05-15T00:20:31.960Z,99.90
2018-05-15T00:23:00.808Z,99.90
2018-05-15T00:25:30.404Z,99.90
2018-05-15T00:27:58.531Z,99.90
2018-05-15T00:30:27.352Z,99.90
2018-05-15T00:32:55.609Z,99.90
2018-05-15T00:35:23.677Z,99.90
2018-05-15T00:37:51.739Z,99.90
2018-05-15T00:40:19.792Z,99.90
2018-05-15T00:42:47.863Z,99.90
2018-05-15T00:45:15.925Z,99.90
2018-05-15T00:47:44.035Z,99.90
2018-05-15T00:50:12.099Z,99.90
2018-05-15T00:52:40.170Z,99.90
2018-05-15T00:55:20.112Z,99.90
2018-05-15T00:57:48.229Z,99.90
2018-05-15T01:00:16.592Z,99.90
2018-05-15T01:02:44.766Z,99.90
2018-05-15T01:05:12.951Z,99.90
2018-05-15T01:07:41.066Z,99.90
2018-05-15T01:10:09.994Z,99.90
2018-05-15T01:12:38.540Z,99.90
2018-05-15T01:15:07.390Z,99.90
2018-05-15T01:17:35.598Z,99.90
2018-05-15T01:20:03.655Z,99.90
2018-05-15T01:22:31.748Z,99.90
2018-05-15T01:25:00.636Z,99.90
2018-05-15T01:27:29.457Z,99.90
2018-05-15T01:29:58.377Z,99.90
2018-05-15T01:32:26.437Z,99.90
2018-05-15T01:34:56.070Z,99.90
2018-05-15T01:37:24.383Z,99.90
2018-05-15T01:39:53.235Z,99.90
2018-05-15T01:42:21.407Z,99.90
2018-05-15T01:44:49.480Z,99.90
2018-05-15T01:47:17.632Z,99.90
2018-05-15T01:49:45.819Z,99.90
2018-05-15T01:52:13.884Z,99.90
2018-05-15T01:54:42.452Z,99.90
2018-05-15T01:57:10.497Z,99.90
2018-05-15T01:59:38.547Z,99.90
2018-05-15T02:02:07.632Z,99.90
2018-05-15T02:04:35.687Z,99.90
2018-05-15T02:07:03.749Z,99.90
2018-05-15T02:09:31.936Z,99.90
2018-05-15T02:12:00.029Z,99.90
2018-05-15T02:14:29.024Z,99.90
2018-05-15T02:16:57.296Z,99.90
2018-05-15T02:19:26.232Z,99.90
2018-05-15T02:22:11.222Z,99.90
2018-05-15T02:24:39.295Z,99.90
2018-05-15T02:27:07.425Z,99.90
2018-05-15T02:29:35.580Z,99.90
2018-05-15T02:32:03.665Z,99.90
2018-05-15T02:34:32.505Z,99.90
2018-05-15T02:37:00.700Z,99.90
2018-05-15T02:39:29.768Z,99.90
2018-05-15T02:41:57.824Z,99.90
2018-05-15T02:44:25.900Z,99.90
2018-05-15T02:46:53.959Z,99.90
2018-05-15T02:49:22.348Z,99.90
2018-05-15T02:51:50.417Z,99.90
2018-05-15T02:54:18.473Z,99.90
2018-05-15T02:56:46.861Z,99.90
2018-05-15T02:59:14.916Z,99.90
2018-05-15T03:01:43.752Z,99.90
2018-05-15T03:04:11.819Z,99.90
2018-05-15T03:06:39.873Z,99.90
2018-05-15T03:09:07.934Z,99.90
2018-05-15T03:11:36.242Z,99.90
2018-05-15T03:14:04.202Z,99.90
2018-05-15T03:16:32.273Z,99.90
2018-05-15T03:19:00.331Z,99.90
2018-05-15T03:21:28.405Z,99.90
2018-05-15T03:23:56.468Z,99.90
2018-05-15T03:26:24.853Z,99.90
2018-05-15T03:28:52.904Z,99.90
2018-05-15T03:31:25.501Z,99.90
2018-05-15T03:33:53.571Z,99.90
2018-05-15T03:36:21.644Z,99.90
2018-05-15T03:38:49.707Z,99.90
2018-05-15T03:41:17.775Z,99.90
2018-05-15T03:43:45.859Z,99.90
2018-05-15T03:46:13.940Z,99.90
2018-05-15T03:48:42.089Z,99.90
2018-05-15T03:51:10.555Z,99.90
2018-05-15T03:53:38.816Z,99.90
2018-05-15T03:56:06.896Z,99.90
2018-05-15T03:58:34.963Z,99.90
2018-05-15T04:04:14.653Z,99.90
2018-05-15T04:06:54.848Z,99.90
2018-05-15T04:09:23.020Z,99.90
2018-05-15T04:11:51.080Z,99.90
2018-05-15T04:14:19.144Z,99.90
2018-05-15T04:16:47.195Z,99.90
2018-05-15T04:19:15.245Z,99.90
2018-05-15T04:21:43.296Z,99.90
2018-05-15T04:24:11.348Z,99.90
2018-05-15T04:26:39.401Z,99.90
2018-05-15T04:29:07.548Z,99.90
2018-05-15T04:31:35.919Z,99.90
2018-05-15T04:34:03.961Z,99.90
2018-05-15T04:36:32.006Z,99.90
2018-05-15T04:39:00.063Z,99.90
2018-05-15T04:41:28.101Z,99.90
2018-05-15T04:43:56.501Z,99.90
2018-05-15T04:46:24.542Z,99.90
2018-05-15T04:48:52.584Z,99.90
2018-05-15T04:51:20.910Z,99.90
2018-05-15T04:53:49.719Z,99.90
2018-05-15T04:56:17.754Z,99.90
2018-05-15T04:58:45.806Z,99.90
2018-05-15T05:01:14.624Z,99.90
2018-05-15T05:03:42.664Z,99.90
2018-05-15T05:06:10.725Z,99.90
2018-05-15T05:08:38.763Z,99.90
2018-05-15T05:11:06.820Z,99.90
2018-05-15T05:13:35.620Z,99.90
2018-05-15T05:16:04.089Z,99.90
2018-05-15T05:18:32.170Z,99.90
2018-05-15T05:21:00.509Z,99.90
2018-05-15T05:23:28.515Z,99.90
2018-05-15T05:25:56.573Z,99.90
2018-05-15T05:28:24.712Z,99.90
2018-05-15T05:30:52.886Z,99.90
2018-05-15T05:33:20.937Z,99.90
2018-05-15T05:35:48.993Z,99.90
2018-05-15T05:38:17.047Z,99.90
2018-05-15T05:40:45.093Z,99.90
2018-05-15T05:43:13.135Z,99.90
2018-05-15T05:45:41.184Z,99.90
2018-05-15T05:48:09.416Z,99.90
2018-05-15T05:50:37.467Z,99.90
2018-05-15T05:53:05.523Z,99.90
2018-05-15T05:55:33.720Z,99.90
2018-05-15T05:58:02.165Z,99.90
2018-05-15T06:00:30.979Z,99.90
2018-05-15T06:02:59.032Z,99.90
2018-05-15T06:05:27.096Z,99.90
2018-05-15T06:07:55.123Z,99.90
2018-05-15T06:10:23.549Z,99.90
2018-05-15T06:12:51.575Z,99.90
2018-05-15T06:15:19.644Z,99.90
2018-05-15T06:17:47.697Z,99.90
2018-05-15T06:20:15.770Z,99.90
2018-05-15T06:22:43.818Z,99.90
2018-05-15T06:25:11.870Z,99.90
2018-05-15T06:27:40.688Z,99.90
2018-05-15T06:30:08.750Z,99.90
2018-05-15T06:32:36.780Z,99.90
2018-05-15T06:35:04.829Z,99.90
2018-05-15T06:37:32.887Z,99.90
2018-05-15T06:40:01.259Z,99.90
2018-05-15T06:42:29.332Z,99.90
2018-05-15T06:44:57.385Z,99.90
2018-05-15T06:47:25.450Z,99.90
2018-05-15T06:49:53.483Z,99.90
2018-05-15T06:52:21.523Z,99.90
2018-05-15T06:54:49.590Z,99.90
2018-05-15T06:57:21.077Z,99.90
2018-05-15T06:59:49.138Z,99.90
2018-05-15T07:02:17.179Z,99.90
2018-05-15T07:04:45.234Z,99.90
2018-05-15T07:07:13.291Z,99.90
2018-05-15T07:09:41.340Z,99.90
2018-05-15T07:12:09.387Z,99.90
2018-05-15T07:14:37.431Z,99.90
2018-05-15T07:17:05.483Z,99.90
2018-05-15T07:19:34.303Z,99.90
2018-05-15T07:22:02.330Z,99.90
2018-05-15T07:24:30.383Z,99.90
2018-05-15T07:26:58.454Z,99.90
2018-05-15T07:29:26.511Z,99.90
2018-05-15T07:31:54.607Z,99.90
2018-05-15T07:34:22.652Z,99.90
2018-05-15T07:36:50.704Z,99.90
2018-05-15T07:39:18.766Z,99.90
2018-05-15T07:41:47.033Z,99.90
2018-05-15T07:44:15.089Z,99.90
2018-05-15T07:46:43.149Z,99.90
2018-05-15T07:49:11.208Z,99.90
2018-05-15T07:51:39.264Z,99.90
2018-05-15T07:54:07.359Z,99.90
2018-05-15T07:56:35.433Z,99.90
2018-05-15T07:59:03.479Z,99.90
2018-05-15T08:01:31.536Z,99.90
2018-05-15T08:03:59.588Z,99.90
2018-05-15T08:06:27.635Z,99.90
2018-05-15T08:08:55.699Z,99.90
2018-05-15T08:11:23.744Z,99.90
2018-05-15T08:13:51.951Z,99.90
2018-05-15T08:16:20.013Z,99.90
2018-05-15T08:18:48.045Z,99.90
2018-05-15T08:21:16.095Z,99.90
2018-05-15T08:23:44.153Z,99.90
2018-05-15T08:26:12.199Z,99.90
2018-05-15T08:28:40.250Z,99.90
2018-05-15T08:31:08.291Z,99.90
2018-05-15T08:33:36.499Z,99.90
2018-05-15T08:36:04.550Z,99.90
2018-05-15T08:38:32.600Z,99.90
2018-05-15T08:41:00.721Z,99.90
2018-05-15T08:43:28.779Z,99.90
2018-05-15T08:45:56.824Z,99.90
2018-05-15T08:48:24.901Z,99.90
2018-05-15T08:50:52.956Z,99.90
2018-05-15T08:53:21.081Z,99.90
2018-05-15T08:55:49.144Z,99.90
2018-05-15T08:58:17.203Z,99.90
2018-05-15T09:00:45.250Z,99.90
2018-05-15T09:03:13.322Z,99.90
2018-05-15T09:05:41.370Z,99.90
2018-05-15T09:08:09.431Z,99.90
2018-05-15T09:10:37.494Z,99.90
2018-05-15T09:13:05.556Z,99.90
2018-05-15T09:15:33.612Z,99.90
2018-05-15T09:18:01.665Z,99.90
2018-05-15T09:20:30.022Z,99.90
2018-05-15T09:22:58.057Z,99.90
2018-05-15T09:25:26.099Z,99.90
2018-05-15T09:27:54.151Z,99.90
2018-05-15T09:30:22.399Z,99.90
2018-05-15T09:32:50.456Z,99.90
2018-05-15T09:35:18.516Z,99.90
2018-05-15T09:37:46.573Z,99.70
2018-05-15T09:40:14.637Z,99.60
2018-05-15T09:42:42.675Z,99.90
2018-05-15T09:45:10.715Z,99.90
2018-05-15T09:47:38.773Z,99.90
2018-05-15T09:50:06.831Z,99.90
2018-05-15T09:52:34.901Z,99.90
2018-05-15T09:55:02.960Z,99.30
2018-05-15T09:57:31.045Z,99.90
2018-05-15T10:00:00.830Z,99.20
2018-05-15T10:02:28.877Z,99.30
2018-05-15T10:04:56.923Z,98.30
2018-05-15T10:07:24.982Z,97.10
2018-05-15T10:09:53.019Z,97.20
2018-05-15T10:12:21.085Z,96.50
2018-05-15T10:14:49.124Z,97.10
2018-05-15T10:17:17.210Z,95.10
2018-05-15T10:19:45.253Z,93.70
2018-05-15T10:22:13.313Z,93.80
2018-05-15T10:24:41.360Z,93.30
2018-05-15T10:27:09.420Z,93.40
2018-05-15T10:29:37.459Z,93.20
2018-05-15T10:32:05.518Z,93.50
2018-05-15T10:34:33.561Z,93.90
2018-05-15T10:37:01.691Z,94.50
2018-05-15T10:39:29.733Z,93.70
2018-05-15T10:41:57.786Z,93.80
2018-05-15T10:44:25.824Z,93.50
2018-05-15T10:46:53.880Z,93.40
2018-05-15T10:49:21.974Z,92.10
2018-05-15T10:51:50.030Z,92.10
2018-05-15T10:54:18.079Z,90.90
2018-05-15T10:56:46.111Z,90.80
2018-05-15T10:59:14.240Z,90.10
2018-05-15T11:01:42.275Z,90.10
2018-05-15T11:04:10.328Z,89.30
2018-05-15T11:06:38.360Z,90.10
2018-05-15T11:09:06.545Z,88.30
2018-05-15T11:11:34.581Z,88.60
2018-05-15T11:14:02.634Z,86.50
2018-05-15T11:16:30.677Z,85.20
2018-05-15T11:19:10.508Z,84.80
2018-05-15T11:21:50.216Z,84.40
2018-05-15T11:24:25.022Z,81.50
2018-05-15T11:26:53.053Z,83.00
2018-05-15T11:29:21.172Z,83.40
2018-05-15T11:31:49.212Z,83.80
2018-05-15T11:34:17.269Z,83.30
2018-05-15T11:36:46.073Z,81.20
2018-05-15T11:39:14.125Z,81.10
2018-05-15T11:41:42.278Z,81.80
2018-05-15T11:44:10.384Z,82.90
2018-05-15T11:46:38.426Z,83.90
2018-05-15T11:49:07.148Z,82.80
2018-05-15T11:51:35.145Z,82.80
2018-05-15T11:54:02.625Z,84.70
2018-05-15T11:56:30.673Z,79.10
2018-05-15T11:58:58.685Z,77.40
2018-05-15T12:01:26.731Z,72.90
2018-05-15T12:03:54.830Z,76.00
2018-05-15T12:06:22.991Z,73.60
2018-05-15T12:08:51.068Z,73.40
2018-05-15T12:11:19.102Z,73.60
2018-05-15T12:13:47.140Z,71.50
2018-05-15T12:16:15.187Z,72.30
2018-05-15T12:18:43.237Z,74.10
2018-05-15T12:21:11.282Z,72.80
2018-05-15T12:23:39.328Z,72.00
2018-05-15T12:26:07.373Z,69.20
2018-05-15T12:28:35.429Z,65.90
2018-05-15T12:31:03.486Z,66.80
2018-05-15T12:33:31.532Z,65.50
2018-05-15T12:35:59.644Z,64.70
2018-05-15T12:38:27.700Z,65.70
2018-05-15T12:40:56.010Z,65.20
2018-05-15T12:43:24.052Z,65.30
2018-05-15T12:45:52.083Z,66.10
2018-05-15T12:48:20.126Z,67.50
2018-05-15T12:50:48.165Z,68.40
2018-05-15T12:53:16.228Z,70.30
2018-05-15T12:55:44.268Z,70.90
2018-05-15T12:58:12.297Z,66.10
2018-05-15T13:00:40.348Z,62.70
2018-05-15T13:03:08.450Z,62.80
2018-05-15T13:05:36.496Z,60.60
2018-05-15T13:08:04.516Z,58.50
2018-05-15T13:10:32.564Z,57.20
2018-05-15T13:13:00.602Z,56.90
2018-05-15T13:15:28.653Z,55.80
2018-05-15T13:17:56.707Z,54.20
2018-05-15T13:20:25.509Z,54.10
2018-05-15T13:22:53.548Z,53.90
2018-05-15T13:25:21.583Z,54.30
2018-05-15T13:27:49.625Z,56.80
2018-05-15T13:30:17.712Z,57.40
2018-05-15T13:32:45.764Z,56.40
2018-05-15T13:35:13.821Z,55.80
2018-05-15T13:37:43.344Z,53.80
2018-05-15T13:40:11.392Z,54.60
2018-05-15T13:42:39.429Z,51.70
2018-05-15T13:45:07.488Z,52.70
2018-05-15T13:47:35.529Z,50.10
2018-05-15T13:50:03.582Z,49.80
2018-05-15T13:52:31.607Z,50.00
2018-05-15T13:54:59.659Z,51.10
2018-05-15T13:57:27.704Z,51.60
2018-05-15T13:59:55.740Z,53.40
2018-05-15T14:02:23.784Z,53.50
2018-05-15T14:04:51.836Z,52.50
2018-05-15T14:07:19.864Z,51.30
2018-05-15T14:09:47.915Z,50.00
2018-05-15T14:12:15.975Z,50.10
2018-05-15T14:14:44.021Z,49.50
2018-05-15T14:17:12.052Z,50.30
2018-05-15T14:19:40.092Z,51.40
2018-05-15T14:22:08.808Z,51.30
2018-05-15T14:24:37.007Z,52.00
2018-05-15T14:27:09.133Z,51.90
2018-05-15T14:29:37.189Z,50.50
2018-05-15T14:32:05.235Z,50.30
2018-05-15T14:34:33.277Z,50.90
2018-05-15T14:37:01.600Z,51.80
2018-05-15T14:39:29.668Z,52.10
2018-05-15T14:42:09.537Z,51.60
2018-05-15T14:44:37.594Z,52.80
2018-05-15T14:47:05.647Z,51.40
2018-05-15T14:49:33.684Z,52.80
2018-05-15T14:52:01.728Z,52.80
2018-05-15T14:54:29.767Z,53.10
2018-05-15T14:56:57.813Z,52.60
2018-05-15T14:59:25.866Z,51.10
2018-05-15T15:01:53.912Z,53.10
2018-05-15T15:04:21.946Z,54.90
2018-05-15T15:06:49.982Z,62.70
2018-05-15T15:09:18.028Z,69.40
2018-05-15T15:11:46.081Z,69.30
2018-05-15T15:14:14.104Z,71.50
2018-05-15T15:16:42.157Z,68.80
2018-05-15T15:19:10.204Z,69.80
2018-05-15T15:21:38.252Z,73.40
2018-05-15T15:24:06.288Z,70.80
2018-05-15T15:26:34.337Z,68.20
2018-05-15T15:29:02.389Z,69.60
2018-05-15T15:31:30.444Z,71.20
2018-05-15T15:33:58.459Z,75.10
2018-05-15T15:36:26.516Z,72.30
2018-05-15T15:38:54.549Z,77.00
2018-05-15T15:41:22.593Z,81.00
2018-05-15T15:43:50.725Z,77.90
2018-05-15T15:46:18.680Z,78.70
2018-05-15T15:48:49.912Z,77.30
2018-05-15T15:51:17.955Z,80.80
2018-05-15T15:53:46.008Z,86.40
2018-05-15T15:56:14.057Z,89.60
2018-05-15T15:58:42.108Z,90.90
2018-05-15T16:01:10.936Z,92.60
2018-05-15T16:03:39.128Z,92.60
2018-05-15T16:06:07.179Z,93.30
2018-05-15T16:08:35.233Z,95.50
2018-05-15T16:11:03.289Z,95.70
2018-05-15T16:13:31.332Z,95.80
2018-05-15T16:15:59.385Z,96.40
2018-05-15T16:18:27.446Z,96.00
2018-05-15T16:20:55.485Z,96.50
2018-05-15T16:23:23.514Z,97.20
2018-05-15T16:25:51.597Z,97.70
2018-05-15T16:28:19.646Z,98.20
2018-05-15T16:30:47.686Z,99.10
2018-05-15T16:33:15.742Z,99.80
2018-05-15T16:35:43.799Z,99.90
2018-05-15T16:38:11.840Z,99.10
2018-05-15T16:40:39.894Z,99.90
2018-05-15T16:43:07.948Z,99.90
2018-05-15T16:45:36.009Z,99.90
2018-05-15T16:48:04.829Z,99.90
2018-05-15T16:50:32.880Z,99.90
2018-05-15T16:53:00.954Z,99.90
2018-05-15T16:55:29.005Z,99.90
2018-05-15T16:57:57.067Z,99.90
2018-05-15T17:00:25.121Z,99.90
2018-05-15T17:02:53.343Z,99.90
2018-05-15T17:05:21.392Z,99.90
2018-05-15T17:07:49.590Z,99.90
2018-05-15T17:10:17.629Z,99.90
2018-05-15T17:12:45.714Z,99.90
2018-05-15T17:15:13.751Z,99.90
2018-05-15T17:17:41.814Z,99.90
2018-05-15T17:20:09.865Z,99.90
2018-05-15T17:22:37.949Z,99.90
2018-05-15T17:25:06.495Z,99.00
2018-05-15T17:27:38.447Z,99.70
2018-05-15T17:30:07.744Z,99.90
2018-05-15T17:32:35.972Z,99.90
2018-05-15T17:35:04.344Z,99.90
2018-05-15T17:37:33.635Z,99.90
2018-05-15T17:40:02.486Z,98.80
2018-05-15T17:42:31.026Z,99.00
2018-05-15T17:45:00.241Z,98.10
2018-05-15T17:47:28.520Z,99.10
2018-05-15T17:49:56.836Z,99.00
2018-05-15T17:52:26.099Z,99.90
2018-05-15T17:54:54.300Z,99.90
2018-05-15T17:57:23.087Z,99.90
2018-05-15T17:59:51.200Z,99.80
2018-05-15T18:02:19.140Z,99.90
2018-05-15T18:04:47.204Z,98.30
2018-05-15T18:07:15.240Z,99.30
2018-05-15T18:09:43.293Z,99.90
2018-05-15T18:12:12.104Z,99.60
2018-05-15T18:14:40.322Z,99.60
2018-05-15T18:17:10.983Z,99.80
2018-05-15T18:19:39.033Z,99.50
2018-05-15T18:22:07.076Z,97.70
2018-05-15T18:24:35.120Z,96.30
2018-05-15T18:27:03.847Z,97.10
2018-05-15T18:29:31.892Z,98.60
2018-05-15T18:31:59.946Z,98.80
2018-05-15T18:34:28.752Z,99.40
2018-05-15T18:36:56.811Z,99.30
2018-05-15T18:39:24.993Z,98.90
2018-05-15T18:41:53.189Z,98.00
2018-05-15T18:44:21.255Z,99.10
2018-05-15T18:46:49.367Z,99.90
2018-05-15T18:49:17.415Z,99.20
2018-05-15T18:51:45.470Z,99.90
2018-05-15T18:54:13.528Z,99.80
2018-05-15T18:56:41.742Z,99.90
2018-05-15T18:59:09.895Z,99.90
2018-05-15T19:01:38.089Z,99.70
2018-05-15T19:04:06.117Z,99.90
2018-05-15T19:06:34.152Z,99.90
2018-05-15T19:09:03.131Z,99.90
2018-05-15T19:11:31.172Z,99.90
2018-05-15T19:13:59.281Z,99.90
2018-05-15T19:16:28.019Z,99.90
2018-05-15T19:18:56.068Z,99.90
2018-05-15T19:21:24.211Z,99.90
2018-05-15T19:23:52.260Z,99.90
2018-05-15T19:26:20.296Z,99.90
2018-05-15T19:28:48.352Z,99.90
2018-05-15T19:31:16.634Z,99.90
2018-05-15T19:33:50.244Z,99.90
2018-05-15T19:36:18.276Z,99.90
2018-05-15T19:38:46.345Z,99.90
2018-05-15T19:41:19.189Z,99.90
2018-05-15T19:43:47.234Z,99.90
2018-05-15T19:46:16.262Z,99.90
2018-05-15T19:48:44.316Z,99.90
2018-05-15T19:51:12.416Z,99.90
2018-05-15T19:53:40.474Z,99.90
2018-05-15T19:56:08.660Z,99.90
2018-05-15T19:58:36.707Z,99.90
2018-05-15T20:01:04.764Z,99.90
2018-05-15T20:03:32.807Z,99.90
2018-05-15T20:06:00.864Z,99.90
2018-05-15T20:08:28.933Z,99.90
2018-05-15T20:10:56.952Z,99.90
2018-05-15T20:13:25.000Z,99.90
2018-05-15T20:15:53.144Z,99.90
2018-05-15T20:18:21.206Z,99.90
2018-05-15T20:20:49.337Z,99.90
2018-05-15T20:23:17.440Z,99.90
2018-05-15T20:25:45.534Z,99.90
2018-05-15T20:28:13.544Z,99.90
2018-05-15T20:30:42.240Z,99.90
2018-05-15T20:33:10.289Z,99.90
2018-05-15T20:35:38.337Z,99.90
2018-05-15T20:38:06.389Z,99.90
2018-05-15T20:40:34.444Z,99.90
2018-05-15T20:43:02.500Z,99.90
2018-05-15T20:45:30.573Z,99.90
2018-05-15T20:47:58.611Z,99.90
2018-05-15T20:50:26.679Z,99.90
2018-05-15T20:52:54.712Z,99.90
2018-05-15T20:55:22.773Z,99.90
2018-05-15T20:57:50.812Z,99.90
2018-05-15T21:00:19.642Z,99.90
2018-05-15T21:02:47.712Z,99.90
2018-05-15T21:05:15.765Z,99.90
2018-05-15T21:07:43.819Z,99.90
2018-05-15T21:10:11.929Z,99.90
2018-05-15T21:12:39.988Z,99.90
2018-05-15T21:15:08.064Z,99.90
2018-05-15T21:17:36.090Z,99.90
2018-05-15T21:20:04.262Z,99.90
2018-05-15T21:22:32.426Z,99.90
2018-05-15T21:25:00.491Z,99.90
2018-05-15T21:27:28.582Z,99.90
2018-05-15T21:29:56.622Z,99.90
2018-05-15T21:32:24.706Z,99.90
2018-05-15T21:34:52.771Z,99.90
2018-05-15T21:37:20.827Z,99.90
2018-05-15T21:39:48.882Z,99.90
2018-05-15T21:42:16.935Z,99.90
2018-05-15T21:44:45.072Z,99.90
2018-05-15T21:47:13.146Z,99.90
2018-05-15T21:49:41.168Z,99.90
2018-05-15T21:52:09.256Z,99.90
2018-05-15T21:54:38.194Z,99.90
2018-05-15T21:57:06.227Z,99.90
2018-05-15T21:59:35.088Z,99.90
2018-05-15T22:02:03.147Z,99.90
2018-05-15T22:04:31.207Z,99.90
2018-05-15T22:06:59.269Z,99.90
2018-05-15T22:09:27.434Z,99.90
2018-05-15T22:12:07.051Z,99.90
2018-05-15T22:14:46.777Z,99.90
2018-05-15T22:17:26.835Z,99.90
2018-05-15T22:20:06.756Z,99.90
2018-05-15T22:22:34.301Z,99.90
2018-05-15T22:25:02.335Z,99.90
2018-05-15T22:27:30.560Z,99.90
2018-05-15T22:29:59.312Z,99.90
2018-05-15T22:32:27.349Z,99.90
2018-05-15T22:34:55.388Z,99.90
2018-05-15T22:37:25.137Z,99.90
2018-05-15T22:39:53.551Z,99.90
2018-05-15T22:42:21.600Z,99.90
2018-05-15T22:44:49.650Z,99.90
2018-05-15T22:47:17.734Z,99.90
2018-05-15T22:49:45.804Z,99.90
2018-05-15T22:52:13.850Z,99.90
2018-05-15T22:54:41.892Z,99.90
2018-05-15T22:57:10.054Z,99.90
2018-05-15T22:59:38.119Z,99.90
2018-05-15T23:02:06.306Z,99.90
2018-05-15T23:04:34.361Z,99.90
2018-05-15T23:07:02.430Z,99.90
2018-05-15T23:09:30.492Z,99.90
2018-05-15T23:11:58.543Z,99.90
2018-05-15T23:14:26.572Z,99.90
2018-05-15T23:16:54.644Z,99.90
2018-05-15T23:19:22.711Z,99.90
2018-05-15T23:21:54.700Z,99.90
2018-05-15T23:24:23.516Z,99.90
2018-05-15T23:26:52.367Z,99.90
2018-05-15T23:29:21.165Z,99.90
2018-05-15T23:31:49.212Z,99.90
2018-05-15T23:34:17.249Z,99.90
2018-05-15T23:36:45.324Z,99.90
2018-05-15T23:39:13.403Z,99.90
2018-05-15T23:41:41.411Z,99.90
2018-05-15T23:44:10.348Z,99.90
2018-05-15T23:46:38.396Z,99.90
2018-05-15T23:49:06.481Z,99.90
2018-05-15T23:51:34.531Z,99.90
2018-05-15T23:54:02.588Z,99.90
2018-05-15T23:56:31.412Z,99.90
2018-05-15T23:58:59.520Z,99.90
